Observations at @wa for Latest


KALW 240853Z AUTO 11005KT 10SM OVC022 06/03 A3041 RMK AO2 RAB28E38 SLP303 P0000
 60000 T00610033 51012=
KAWO 240856Z AUTO 00000KT 9SM OVC018 05/04 A3051 RMK AO2 SLP338 T00500044 51019=
KBFI 240853Z 00000KT 6SM BR BKN011 BKN024 OVC032 08/06 A3049 RMK AO2 SLP324
 T00780061 51005=
KBFI 240913Z 00000KT 2SM -RA BR BKN007 OVC011 08/06 A3051 RMK AO2 RAB0855 P0002
 T00780061=
KBLI 240853Z AUTO 00000KT 10SM OVC018 05/04 A3051 RMK AO2 SLP340 T00500039
 51015=
KCLM 240853Z AUTO 08004KT 10SM OVC018 07/04 A3051 RMK AO2 SLP335 T00670039
 52019=
KEAT 240855Z AUTO 28005KT 1/4SM FZFG VV001 M01/M02 A3044 RMK AO2 SLP322 I1001
 I3001 T10061017 51016=
KELN 240853Z AUTO 00000KT 10SM FEW050 01/M01 A3041 RMK AO2 SLP307 I3001
 T00111011 51020=
KEPH 240853Z AUTO 32007KT 10SM CLR 02/M02 A3043 RMK AO2 SLP313 T00171022 51016=
KFHR 240853Z AUTO VRB03KT 10SM BKN033 OVC044 06/03 A3051 RMK AO2 SLP333
 T00610033 51011=
KGEG 240853Z 15005KT 10SM BCFG FEW010 M05/M06 A3037 RMK AO2 SLP308 VIS NE-SE 2
 BCFG NE-SE I3001 T10501061 51010=
KGRF 240858Z 13005KT 10SM OVC030 07/07 A3049 RMK AO2A SLP331 50017 $=
KHQM 240853Z AUTO 17005KT 10SM SCT006 OVC016 08/07 A3049 RMK AO2 RAE28 SLP327
 P0003 60005 T00780072 50001=
KKLS 240856Z AUTO 00000KT 10SM OVC033 07/07 A3052 RMK AO2 SLP341 T00720067
 51011=
KMWH 240852Z AUTO 34008KT 10SM CLR 00/M02 A3044 RMK AO2 SLP318 T00001017 51017=
KNOW 240850Z AUTO 06004KT 10SM OVC019 07/05 A3052 RMK AO2 T00720048=
KNOW 240910Z AUTO 07004KT 10SM OVC019 07/05 A3052 RMK AO2 T00720050=
KNUW 240856Z 00000KT 8SM SCT023 BKN045 BKN070 06/03 A3055 RMK AO2 SLP345
 T00560033 51016 $=
KOLM 240854Z AUTO 22004KT 10SM OVC032 07/06 A3050 RMK AO2 SLP328 T00720056
 50016=
KOMK 240853Z AUTO 00000KT 10SM CLR M04/M04 A3044 RMK AO2 SLP324 I1000 I3000
 T10391044 50011=
KORS 240855Z AUTO 00000KT 7SM SCT022 OVC038 05/05 A3051 RMK AO2=
KORS 240915Z AUTO 00000KT 3SM BR BKN038 04/04 A3050 RMK AO2=
KPAE 240853Z AUTO 00000KT 8SM OVC017 06/04 A3049 RMK AO2 SLP329 T00560044 51016=
KPAE 240907Z AUTO 35004KT 1 3/4SM BR BKN017 OVC042 05/04 A3049 RMK AO2
 T00500044=
KPAE 240919Z AUTO 34004KT 1/2SM R16R/1800VP6000FT FG FEW001 OVC017 05/04 A3050
 RMK AO2 T00500044=
KPSC 240853Z AUTO 00000KT 10SM BKN048 OVC075 04/03 A3046 RMK AO2 SLP316
 T00390033 53018=
KPUW 240853Z AUTO 13004KT 9SM OVC005 00/M01 A3039 RMK AO2 SLP315 T00001006
 53010=
KPUW 240905Z AUTO 14003KT 10SM OVC006 00/M01 A3040 RMK AO2 T00001006=
KPWT 240856Z AUTO 00000KT 2 1/2SM -RA BR OVC013 06/06 A3049 RMK AO2 SLP344
 P0002 60002 T00610056 50013=
KPWT 240906Z AUTO 03003KT 3SM -RA BR SCT009 OVC013 06/06 A3050 RMK AO2 P0000=
KPWT 240911Z AUTO 06003KT 2 1/2SM -RA BR BKN009 OVC013 06/06 A3050 RMK AO2 VIS
 2V4 CIG 007V010 P0001=
KPWT 240922Z AUTO 00000KT 2 1/2SM -RA BR OVC011 06/06 A3050 RMK AO2 P0002=
KRNT 240853Z AUTO 00000KT 2SM -RA BR SCT010 BKN013 OVC024 08/07 A3049 RMK AO2
 RAB42 SLP329 P0000 60000 T00780067 50015=
KRNT 240909Z AUTO 00000KT 2 1/2SM BR BKN008 OVC015 08/07 A3050 RMK AO2 RAE04
 P0000 T00780072=
KRNT 240917Z AUTO 00000KT 1 3/4SM -RA BR BKN005 OVC008 08/07 A3051 RMK AO2
 RAE04B17 CIG 004V008 P0000 T00780072=
KSEA 240853Z 00000KT 1SM R16L/P6000FT -RA BR BKN004 BKN013 OVC020 07/07 A3048
 RMK AO2 DZE22RAB22 SLP330 P0001 60002 T00720067 50015=
KSFF 240853Z AUTO 00000KT 1/4SM FZFG VV002 M04/M05 A3039 RMK AO2 SLP310 I1000
 I3001 T10391050 53006=
KSFF 240912Z AUTO 00000KT 1SM BR OVC002 M03/M04 A3040 RMK AO2 T10281039=
KSFF 240916Z AUTO 00000KT 3SM BR BKN002 M03/M04 A3040 RMK AO2 T10281039=
KSHN 240853Z AUTO 11003KT 10SM FEW007 OVC040 08/06 A3046 RMK AO2 SLP319 60001
 T00780056 50013=
KSKA 240858Z 25003KT 5SM BR FEW010 M05/M05 A3035 RMK AO2A SLP306 T10551055
 51010 $=
KSMP 240856Z AUTO VRB06KT 1/2SM FG VV002 02/01 A3037 RMK AO2 UPE48RAB22E31
 SLP303 P0000 60000 T00220006 51012 $=
KTCM 240858Z AUTO 00000KT 10SM FEW010 BKN033 06/06 A3049 RMK AO2 SLP331
 T00570057 50018 $=
KTIW 240853Z AUTO VRB06KT 7SM OVC004 07/07 A3050 RMK AO2 RAE24 SLP329 P0001
 60005 T00720067 50018=
KUIL 240853Z AUTO 00000KT 10SM OVC026 07/06 A3048 RMK AO2 SLP323 T00670056
 51010=
KVUO 240853Z AUTO 32003KT 10SM BKN026 OVC036 08/07 A3051 RMK AO2 SLP332
 T00830072 51018=
KYKM 240853Z AUTO 31004KT 10SM CLR M01/M03 A3043 RMK AO2 SLP313 T10111028 51021=